Time;durP1;ratioP1;P1;durP2;ratioP2;P2;SDS_P1;SDS_P2;PMS_P1;PMS_P2;Temp;Humidity;BMP_temperature;BMP_pressure;BME280_temperature;BME280_humidity;BME280_pressure;Samples;Min_cycle;Max_cycle;Signal;HPM_P1;HPM_P2
2023/01/11 00:01:31;;;;;;;;;;;;;;;22.20;45.71;100189.31;7260016;19;153489;-58
2023/01/11 00:03:58;;;;;;;;;;;;;;;22.17;45.87;100196.41;7261463;19;154609;-58
2023/01/11 00:06:25;;;;;;;;;;;;;;;22.17;45.74;100198.41;7258251;19;153948;-57
2023/01/11 00:08:52;;;;;;;;;;;;;;;22.15;45.41;100195.13;7259398;19;154376;-57
2023/01/11 00:11:19;;;;;;;;;;;;;;;22.14;45.64;100207.53;7268693;19;153621;-57
2023/01/11 00:13:46;;;;;;;;;;;;;;;22.13;45.40;100209.50;7256216;19;155509;-57
2023/01/11 00:16:13;;;;;;;;;;;;;;;22.13;45.74;100217.13;7262184;19;153334;-58
2023/01/11 00:18:40;;;;;;;;;;;;;;;22.11;46.08;100220.31;7262150;19;154593;-59
2023/01/11 00:21:07;;;;;;;;;;;;;;;22.13;46.75;100219.94;7258276;19;153699;-58
2023/01/11 00:23:35;;;;;;;;;;;;;;;22.13;46.52;100222.75;7261615;19;154194;-59
2023/01/11 00:26:03;;;;;;;;;;;;;;;22.10;46.85;100224.28;7260049;19;153731;-59
2023/01/11 00:28:30;;;;;;;;;;;;;;;22.08;46.79;100231.38;7257626;19;153261;-57
2023/01/11 00:30:57;;;;;;;;;;;;;;;22.06;46.65;100236.53;7259230;19;154271;-57
2023/01/11 00:33:24;;;;;;;;;;;;;;;22.04;46.80;100245.28;7265223;19;153787;-57
2023/01/11 00:35:52;;;;;;;;;;;;;;;22.02;46.77;100253.25;7258264;19;153932;-57
2023/01/11 00:40:56;;;;;;;;;;;;;;;21.96;47.27;100248.97;7257617;19;153503;-57
2023/01/11 00:48:35;;;;;;;;;;;;;;;21.90;47.36;100249.44;7259465;19;153812;-58
2023/01/11 00:51:02;;;;;;;;;;;;;;;21.87;47.75;100262.19;7257569;19;154465;-59
2023/01/11 00:53:29;;;;;;;;;;;;;;;21.85;47.56;100269.31;7267011;19;153600;-59
2023/01/11 00:55:55;;;;;;;;;;;;;;;21.83;48.04;100254.75;7260422;19;154608;-59
2023/01/11 00:58:22;;;;;;;;;;;;;;;21.81;48.00;100262.69;7262624;19;153634;-60
2023/01/11 01:00:49;;;;;;;;;;;;;;;21.78;48.08;100261.38;7260875;19;154719;-60
2023/01/11 01:03:16;;;;;;;;;;;;;;;21.74;48.13;100264.03;7262106;19;153950;-59
2023/01/11 01:05:43;;;;;;;;;;;;;;;21.73;48.42;100259.56;7258831;19;155366;-58
2023/01/11 01:08:10;;;;;;;;;;;;;;;21.71;48.08;100273.13;7257974;19;154003;-58
2023/01/11 01:10:37;;;;;;;;;;;;;;;21.69;48.46;100264.22;7260630;19;153837;-58
2023/01/11 01:15:41;;;;;;;;;;;;;;;21.65;48.55;100266.03;7266603;19;154300;-58
2023/01/11 01:18:08;;;;;;;;;;;;;;;21.63;48.39;100273.13;7261294;19;154882;-58
2023/01/11 01:20:35;;;;;;;;;;;;;;;21.60;48.49;100265.38;7258904;19;154585;-58
2023/01/11 01:23:02;;;;;;;;;;;;;;;21.57;48.27;100268.88;7257716;19;153968;-58
2023/01/11 01:25:29;;;;;;;;;;;;;;;21.55;48.44;100279.59;7260228;19;155606;-58
2023/01/11 01:27:56;;;;;;;;;;;;;;;21.52;48.61;100274.66;7257790;19;154407;-58
2023/01/11 01:30:23;;;;;;;;;;;;;;;21.50;48.51;100285.38;7258761;19;153313;-58
2023/01/11 01:32:50;;;;;;;;;;;;;;;21.48;48.72;100302.59;7258023;19;153730;-58
2023/01/11 01:35:17;;;;;;;;;;;;;;;21.45;48.73;100299.59;7261211;19;153411;-58
2023/01/11 01:37:44;;;;;;;;;;;;;;;21.42;48.39;100306.72;7264948;19;154912;-58
2023/01/11 01:40:11;;;;;;;;;;;;;;;21.41;48.72;100318.28;7257002;19;154560;-58
2023/01/11 01:42:38;;;;;;;;;;;;;;;21.38;48.94;100319.78;7261474;19;154236;-58
2023/01/11 01:45:15;;;;;;;;;;;;;;;21.35;48.77;100326.03;7256854;19;155616;-58
2023/01/11 01:47:46;;;;;;;;;;;;;;;21.33;48.62;100333.16;7258204;19;154964;-58
2023/01/11 01:50:17;;;;;;;;;;;;;;;21.29;48.59;100330.19;7259232;19;152931;-58
2023/01/11 01:52:46;;;;;;;;;;;;;;;21.27;48.66;100338.09;7257791;19;153916;-57
2023/01/11 01:55:16;;;;;;;;;;;;;;;21.23;48.88;100332.31;7255902;19;153347;-58
2023/01/11 01:57:43;;;;;;;;;;;;;;;21.22;48.44;100332.63;7258521;19;154172;-58
2023/01/11 02:00:11;;;;;;;;;;;;;;;21.18;48.18;100335.28;7264370;19;153395;-58
2023/01/11 02:02:39;;;;;;;;;;;;;;;21.16;48.22;100354.47;7257105;19;154143;-57
2023/01/11 02:05:07;;;;;;;;;;;;;;;21.13;48.36;100363.53;7259264;19;154343;-59
2023/01/11 02:07:37;;;;;;;;;;;;;;;21.12;48.21;100364.66;7255756;19;154984;-59
2023/01/11 02:10:07;;;;;;;;;;;;;;;21.09;48.24;100365.31;7258378;19;153863;-60
2023/01/11 02:12:36;;;;;;;;;;;;;;;21.07;48.27;100381.69;7257473;19;153353;-59
2023/01/11 02:15:04;;;;;;;;;;;;;;;21.04;48.42;100379.50;7255050;19;154739;-60
2023/01/11 02:17:31;;;;;;;;;;;;;;;21.03;48.54;100382.66;7256018;19;153951;-58
2023/01/11 02:20:07;;;;;;;;;;;;;;;21.00;48.62;100392.53;7258291;19;154560;-57
2023/01/11 02:22:43;;;;;;;;;;;;;;;20.99;48.53;100393.69;7263373;19;155178;-57
2023/01/11 02:25:19;;;;;;;;;;;;;;;20.96;48.65;100401.94;7257634;19;153951;-56
2023/01/11 02:27:56;;;;;;;;;;;;;;;20.94;48.97;100396.66;7258031;19;155347;-57
2023/01/11 02:30:29;;;;;;;;;;;;;;;20.94;49.04;100404.25;7258167;19;154225;-58
2023/01/11 02:32:57;;;;;;;;;;;;;;;20.89;48.80;100405.25;7258751;19;155429;-58
2023/01/11 02:35:34;;;;;;;;;;;;;;;20.88;49.26;100406.38;7253031;19;153810;-57
2023/01/11 02:38:10;;;;;;;;;;;;;;;20.85;49.08;100405.03;7257977;19;153180;-57
2023/01/11 02:40:46;;;;;;;;;;;;;;;20.83;49.43;100404.56;7253558;19;153925;-57
2023/01/11 02:46:00;;;;;;;;;;;;;;;20.79;49.37;100413.94;7266762;19;154464;-57
2023/01/11 02:48:29;;;;;;;;;;;;;;;20.77;49.62;100419.88;7256007;19;153740;-57
2023/01/11 02:50:57;;;;;;;;;;;;;;;20.76;49.40;100417.38;7255277;19;154397;-57
2023/01/11 02:53:34;;;;;;;;;;;;;;;20.74;49.93;100417.72;7259051;19;154140;-58
2023/01/11 02:56:04;;;;;;;;;;;;;;;20.72;49.75;100422.81;7262330;19;153340;-58
2023/01/11 02:58:34;;;;;;;;;;;;;;;20.71;49.68;100438.03;7259110;19;153136;-58
2023/01/11 03:01:02;;;;;;;;;;;;;;;20.68;50.15;100441.47;7258724;19;153496;-59
2023/01/11 03:03:29;;;;;;;;;;;;;;;20.66;50.33;100446.59;7255851;19;156122;-58
2023/01/11 03:05:58;;;;;;;;;;;;;;;20.64;50.48;100443.25;7265185;19;153352;-59
2023/01/11 03:08:36;;;;;;;;;;;;;;;20.63;50.64;100458.44;7254828;19;154832;-59
2023/01/11 03:11:08;;;;;;;;;;;;;;;20.60;50.61;100449.84;7255340;19;154118;-59
2023/01/11 03:13:45;;;;;;;;;;;;;;;20.60;50.38;100459.09;7255101;19;154149;-59
2023/01/11 03:16:21;;;;;;;;;;;;;;;20.57;50.71;100459.75;7257495;19;154033;-58
2023/01/11 03:18:48;;;;;;;;;;;;;;;20.55;50.68;100464.00;7256870;19;153320;-59
2023/01/11 03:21:23;;;;;;;;;;;;;;;20.53;50.96;100455.09;7255959;19;153382;-58
2023/01/11 03:24:00;;;;;;;;;;;;;;;20.51;50.75;100452.59;7255870;19;154129;-58
2023/01/11 03:26:32;;;;;;;;;;;;;;;20.50;50.74;100455.72;7257490;19;153435;-58
2023/01/11 03:29:09;;;;;;;;;;;;;;;20.50;50.92;100455.72;7260952;19;155676;-58
2023/01/11 03:31:37;;;;;;;;;;;;;;;20.47;50.74;100454.38;7254530;19;154941;-57
2023/01/11 03:34:05;;;;;;;;;;;;;;;20.46;51.07;100463.09;7253939;19;154057;-57
2023/01/11 03:36:35;;;;;;;;;;;;;;;20.43;51.08;100456.16;7248923;19;154288;-57
2023/01/11 03:39:08;;;;;;;;;;;;;;;20.41;51.06;100467.72;7255992;19;153621;-57
2023/01/11 03:41:37;;;;;;;;;;;;;;;20.40;50.97;100463.22;7253485;19;153675;-57
2023/01/11 03:44:06;;;;;;;;;;;;;;;20.38;51.14;100465.56;7254939;19;153657;-57
2023/01/11 03:46:35;;;;;;;;;;;;;;;20.37;50.81;100477.91;7255112;19;153100;-57
2023/01/11 03:49:08;;;;;;;;;;;;;;;20.36;51.01;100478.22;7253848;19;153456;-57
2023/01/11 03:51:40;;;;;;;;;;;;;;;20.34;50.92;100481.38;7260814;19;154361;-57
2023/01/11 03:54:08;;;;;;;;;;;;;;;20.32;51.19;100489.25;7256593;19;154280;-57
2023/01/11 03:56:39;;;;;;;;;;;;;;;20.31;51.12;100489.56;7253535;19;154123;-58
2023/01/11 03:59:06;;;;;;;;;;;;;;;20.29;50.98;100494.66;7255952;19;154031;-58
2023/01/11 04:01:33;;;;;;;;;;;;;;;20.25;50.69;100488.84;7254192;19;153865;-58
2023/01/11 04:04:00;;;;;;;;;;;;;;;20.25;50.98;100496.44;7254933;19;155341;-58
2023/01/11 04:06:28;;;;;;;;;;;;;;;20.23;50.96;100495.91;7253833;19;152067;-58
2023/01/11 04:08:55;;;;;;;;;;;;;;;20.20;50.76;100499.38;7254175;19;153242;-59
2023/01/11 04:11:21;;;;;;;;;;;;;;;20.19;50.79;100503.31;7252933;19;154941;-59
2023/01/11 04:13:48;;;;;;;;;;;;;;;20.18;51.08;100499.66;7262854;19;152800;-58
2023/01/11 04:16:15;;;;;;;;;;;;;;;20.16;50.58;100501.97;7248696;19;154461;-58
2023/01/11 04:18:42;;;;;;;;;;;;;;;20.15;50.85;100513.50;7254881;19;153955;-59
2023/01/11 04:21:08;;;;;;;;;;;;;;;20.14;50.60;100512.66;7252938;19;153323;-59
2023/01/11 04:23:35;;;;;;;;;;;;;;;20.12;50.69;100509.38;7253497;19;155840;-58
2023/01/11 04:26:02;;;;;;;;;;;;;;;20.11;50.96;100518.91;7254417;19;153604;-58
2023/01/11 04:28:29;;;;;;;;;;;;;;;20.09;50.58;100515.59;7254981;19;153822;-58
2023/01/11 04:30:56;;;;;;;;;;;;;;;20.06;50.67;100513.44;7253560;19;154511;-58
2023/01/11 04:33:22;;;;;;;;;;;;;;;20.06;50.70;100521.84;7254751;19;153233;-58
2023/01/11 04:35:49;;;;;;;;;;;;;;;20.05;50.62;100522.16;7257161;19;155073;-58
2023/01/11 04:38:16;;;;;;;;;;;;;;;20.03;50.70;100522.47;7257054;19;154958;-58
2023/01/11 04:40:43;;;;;;;;;;;;;;;20.02;50.87;100529.22;7254514;19;154113;-58
2023/01/11 04:43:09;;;;;;;;;;;;;;;20.01;50.58;100523.94;7251899;19;154164;-58
2023/01/11 04:45:36;;;;;;;;;;;;;;;19.99;51.02;100530.66;7253317;19;153508;-58
2023/01/11 04:48:03;;;;;;;;;;;;;;;19.98;50.99;100543.06;7259687;19;154680;-59
2023/01/11 04:50:30;;;;;;;;;;;;;;;19.95;50.68;100540.03;7259204;19;154359;-59
2023/01/11 04:52:57;;;;;;;;;;;;;;;19.95;50.91;100537.22;7260424;19;154253;-58
2023/01/11 04:55:24;;;;;;;;;;;;;;;19.93;51.13;100547.94;7259614;19;153999;-59
2023/01/11 04:57:51;;;;;;;;;;;;;;;19.92;51.09;100549.91;7267863;19;153287;-58
2023/01/11 05:00:18;;;;;;;;;;;;;;;19.90;50.84;100545.75;7261395;19;154421;-58
2023/01/11 05:02:44;;;;;;;;;;;;;;;19.89;50.94;100544.13;7258388;19;153844;-58
2023/01/11 05:05:11;;;;;;;;;;;;;;;19.86;50.85;100539.94;7258400;19;153131;-58
2023/01/11 05:07:38;;;;;;;;;;;;;;;19.85;51.14;100557.91;7257554;19;153445;-58
2023/01/11 05:10:05;;;;;;;;;;;;;;;19.84;51.17;100550.66;7257808;19;154503;-58
2023/01/11 05:12:32;;;;;;;;;;;;;;;19.83;51.25;100549.00;7255991;19;154225;-58
2023/01/11 05:14:59;;;;;;;;;;;;;;;19.80;51.04;100548.78;7259620;19;154499;-58
2023/01/11 05:17:25;;;;;;;;;;;;;;;19.80;50.85;100549.63;7268707;19;154010;-57
2023/01/11 05:19:52;;;;;;;;;;;;;;;19.80;51.24;100551.59;7258802;19;154388;-57
2023/01/11 05:22:19;;;;;;;;;;;;;;;19.78;50.93;100557.50;7257335;19;153667;-57
2023/01/11 05:24:46;;;;;;;;;;;;;;;19.76;51.06;100565.38;7260718;19;154437;-58
2023/01/11 05:27:12;;;;;;;;;;;;;;;19.75;50.84;100565.72;7261010;19;154387;-57
2023/01/11 05:29:39;;;;;;;;;;;;;;;19.74;51.23;100575.25;7259369;19;153553;-57
2023/01/11 05:32:06;;;;;;;;;;;;;;;19.72;51.16;100578.38;7259737;19;153740;-57
2023/01/11 05:34:33;;;;;;;;;;;;;;;19.70;51.08;100577.88;7260127;19;153741;-58
2023/01/11 05:37:00;;;;;;;;;;;;;;;19.67;51.08;100575.66;7257645;19;155192;-57
2023/01/11 05:39:26;;;;;;;;;;;;;;;19.66;51.24;100576.00;7265935;19;154324;-57
2023/01/11 05:41:53;;;;;;;;;;;;;;;19.64;51.18;100576.31;7259435;19;153408;-57
2023/01/11 05:46:56;;;;;;;;;;;;;;;19.61;51.19;100570.50;7257840;19;153378;-57
2023/01/11 05:49:23;;;;;;;;;;;;;;;19.61;51.04;100587.31;7257600;19;154009;-58
2023/01/11 05:51:50;;;;;;;;;;;;;;;19.60;51.12;100582.84;7254310;19;153725;-58
2023/01/11 05:54:17;;;;;;;;;;;;;;;19.58;50.85;100583.13;7259345;19;154136;-58
2023/01/11 05:56:43;;;;;;;;;;;;;;;19.59;51.15;100586.78;7255147;19;154846;-58
2023/01/11 05:59:10;;;;;;;;;;;;;;;19.56;51.36;100591.03;7256570;19;154021;-59
2023/01/11 06:01:37;;;;;;;;;;;;;;;19.54;51.00;100591.34;7263723;19;153562;-58
2023/01/11 06:04:04;;;;;;;;;;;;;;;19.54;50.86;100596.94;7256322;19;153897;-58
2023/01/11 06:06:32;;;;;;;;;;;;;;;19.53;51.24;100602.88;7256791;19;153545;-59
2023/01/11 06:08:59;;;;;;;;;;;;;;;19.55;51.32;100614.59;7258466;19;153561;-58
2023/01/11 06:11:26;;;;;;;;;;;;;;;19.58;51.17;100621.56;7257454;19;153546;-57
2023/01/11 06:13:52;;;;;;;;;;;;;;;19.61;51.06;100627.38;7257117;19;154056;-57
2023/01/11 06:16:20;;;;;;;;;;;;;;;19.64;50.99;100637.97;7256093;19;153653;-58
2023/01/11 06:18:48;;;;;;;;;;;;;;;19.67;51.44;100637.31;7256282;19;153841;-58
2023/01/11 06:21:15;;;;;;;;;;;;;;;19.72;51.13;100630.78;7255007;19;153589;-57
2023/01/11 06:23:45;;;;;;;;;;;;;;;19.77;51.26;100627.88;7262544;19;153930;-57
2023/01/11 06:26:14;;;;;;;;;;;;;;;19.84;51.37;100626.34;7257363;19;154315;-57
2023/01/11 06:28:41;;;;;;;;;;;;;;;19.90;51.00;100630.69;7258794;19;154334;-57
2023/01/11 06:31:08;;;;;;;;;;;;;;;20.00;50.67;100638.06;7258232;19;153911;-57
2023/01/11 06:33:36;;;;;;;;;;;;;;;20.07;50.65;100641.31;7258154;19;153483;-57
2023/01/11 06:36:05;;;;;;;;;;;;;;;20.13;50.30;100642.00;7254570;19;154051;-57
2023/01/11 06:38:32;;;;;;;;;;;;;;;20.20;50.50;100634.84;7256521;19;154530;-57
2023/01/11 06:41:01;;;;;;;;;;;;;;;20.26;50.44;100632.75;7255887;19;154572;-57
2023/01/11 06:43:29;;;;;;;;;;;;;;;20.33;50.09;100634.00;7256787;19;155664;-58
2023/01/11 06:45:57;;;;;;;;;;;;;;;20.37;49.86;100639.81;7265037;19;153223;-58
2023/01/11 06:48:25;;;;;;;;;;;;;;;20.43;49.67;100638.56;7254889;19;155103;-58
2023/01/11 06:50:54;;;;;;;;;;;;;;;20.48;50.04;100643.25;7255607;19;154116;-57
2023/01/11 06:53:20;;;;;;;;;;;;;;;20.53;49.64;100645.94;7254832;19;154069;-57
2023/01/11 06:55:50;;;;;;;;;;;;;;;20.58;49.67;100651.44;7254639;19;153908;-57
2023/01/11 06:58:17;;;;;;;;;;;;;;;20.64;49.43;100650.16;7255770;19;154158;-57
2023/01/11 07:00:44;;;;;;;;;;;;;;;20.66;49.32;100654.31;7255683;19;154125;-57
2023/01/11 07:03:12;;;;;;;;;;;;;;;20.71;49.39;100658.97;7254711;19;153737;-57
2023/01/11 07:05:39;;;;;;;;;;;;;;;20.74;49.30;100658.34;7264991;19;153759;-57
2023/01/11 07:08:06;;;;;;;;;;;;;;;20.79;49.35;100656.25;7251589;19;153751;-57
2023/01/11 07:10:33;;;;;;;;;;;;;;;20.84;48.68;100658.09;7251236;19;154146;-57
2023/01/11 07:13:00;;;;;;;;;;;;;;;20.87;48.96;100651.84;7257295;19;153146;-58
2023/01/11 07:15:27;;;;;;;;;;;;;;;20.92;48.20;100657.34;7254203;19;154553;-58
2023/01/11 07:17:55;;;;;;;;;;;;;;;20.97;48.34;100653.56;7255155;19;154263;-58
2023/01/11 07:20:22;;;;;;;;;;;;;;;21.01;47.69;100661.03;7255333;19;153812;-58
2023/01/11 07:22:49;;;;;;;;;;;;;;;21.03;48.43;100667.16;7254868;19;153620;-58
2023/01/11 07:25:19;;;;;;;;;;;;;;;21.05;48.04;100673.28;7253484;19;153505;-57
2023/01/11 07:28:01;;;;;;;;;;;;;;;21.07;48.24;100676.63;7263534;19;153936;-57
2023/01/11 07:30:31;;;;;;;;;;;;;;;21.09;47.89;100681.91;7254221;19;153871;-57
2023/01/11 07:33:10;;;;;;;;;;;;;;;21.14;47.42;100681.81;7257592;19;154356;-57
2023/01/11 07:35:40;;;;;;;;;;;;;;;21.18;47.13;100688.47;7252473;19;154204;-57
2023/01/11 07:38:13;;;;;;;;;;;;;;;21.21;47.20;100691.44;7253496;19;153224;-58
2023/01/11 07:40:45;;;;;;;;;;;;;;;21.22;47.17;100681.88;7254918;19;154050;-57
2023/01/11 07:43:14;;;;;;;;;;;;;;;21.24;46.84;100690.00;7254790;19;156076;-57
2023/01/11 07:45:47;;;;;;;;;;;;;;;21.24;46.73;100693.66;7256568;19;154382;-58
2023/01/11 07:48:23;;;;;;;;;;;;;;;21.23;46.59;100689.16;7254062;19;154125;-58
2023/01/11 07:50:53;;;;;;;;;;;;;;;21.23;46.58;100694.78;7261283;19;154524;-57
2023/01/11 07:53:25;;;;;;;;;;;;;;;21.23;46.52;100702.38;7254435;19;153989;-57
2023/01/11 07:55:55;;;;;;;;;;;;;;;21.23;46.27;100700.41;7251168;19;156382;-57
2023/01/11 07:58:40;;;;;;;;;;;;;;;21.22;46.20;100689.47;7254448;19;153958;-57
2023/01/11 08:01:08;;;;;;;;;;;;;;;21.21;46.54;100693.47;7254036;19;153868;-58
2023/01/11 08:03:36;;;;;;;;;;;;;;;21.20;46.47;100691.78;7256239;19;154558;-58
2023/01/11 08:06:09;;;;;;;;;;;;;;;21.17;45.53;100698.03;7253834;19;153375;-58
2023/01/11 08:08:45;;;;;;;;;;;;;;;21.11;44.80;100688.88;7255045;19;153312;-57
2023/01/11 08:16:32;;;;;;;;;;;;;;;20.74;42.85;100712.53;7256873;19;154017;-57
2023/01/11 08:19:00;;;;;;;;;;;;;;;20.75;43.21;100708.56;7258814;19;153538;-58
2023/01/11 08:21:29;;;;;;;;;;;;;;;20.74;43.47;100709.72;7257945;19;154471;-59
2023/01/11 08:24:10;;;;;;;;;;;;;;;20.77;43.79;100716.66;7257905;19;154945;-58
2023/01/11 08:26:36;;;;;;;;;;;;;;;20.76;43.97;100721.44;7262136;19;153196;-58
2023/01/11 08:29:03;;;;;;;;;;;;;;;20.75;44.30;100728.22;7264471;19;153646;-58
2023/01/11 08:31:33;;;;;;;;;;;;;;;20.75;44.44;100733.84;7262748;19;154928;-58
2023/01/11 08:34:02;;;;;;;;;;;;;;;20.78;44.75;100735.16;7261837;19;154318;-58
2023/01/11 08:36:37;;;;;;;;;;;;;;;20.79;44.66;100734.03;7266676;19;153118;-58
2023/01/11 08:39:15;;;;;;;;;;;;;;;20.83;44.91;100741.50;7261335;19;153714;-58
2023/01/11 08:41:54;;;;;;;;;;;;;;;20.87;44.50;100750.13;7262922;19;154208;-58
2023/01/11 08:44:38;;;;;;;;;;;;;;;20.95;45.00;100751.34;7262943;19;154184;-58
2023/01/11 08:47:05;;;;;;;;;;;;;;;20.98;44.74;100765.63;7263208;19;153674;-58
2023/01/11 08:49:32;;;;;;;;;;;;;;;21.04;45.16;100769.13;7265520;19;154205;-58
2023/01/11 08:51:59;;;;;;;;;;;;;;;21.06;45.25;100769.63;7261475;19;155177;-58
2023/01/11 08:54:25;;;;;;;;;;;;;;;21.09;44.91;100763.38;7263101;19;153863;-58
2023/01/11 08:56:59;;;;;;;;;;;;;;;21.12;44.84;100771.19;7262990;19;154294;-58
2023/01/11 08:59:30;;;;;;;;;;;;;;;21.15;44.99;100779.84;7270381;19;153997;-58
2023/01/11 09:01:58;;;;;;;;;;;;;;;21.18;44.82;100781.19;7262257;19;154426;-58
2023/01/11 09:04:28;;;;;;;;;;;;;;;21.21;44.51;100780.56;7258255;19;155342;-58
2023/01/11 09:07:00;;;;;;;;;;;;;;;21.21;44.65;100772.94;7260809;19;154053;-58
2023/01/11 09:09:40;;;;;;;;;;;;;;;21.24;44.55;100782.72;7259573;19;155467;-58
2023/01/11 09:12:07;;;;;;;;;;;;;;;21.26;44.17;100781.25;7256840;19;154502;-58
2023/01/11 09:14:34;;;;;;;;;;;;;;;21.27;44.34;100779.28;7260975;19;154579;-58
2023/01/11 09:17:01;;;;;;;;;;;;;;;21.27;44.62;100785.72;7259692;19;153502;-59
2023/01/11 09:19:32;;;;;;;;;;;;;;;21.26;44.40;100780.41;7265266;19;155637;-59
2023/01/11 09:22:23;;;;;;;;;;;;;;;21.26;44.43;100777.59;7257443;19;153387;-59
2023/01/11 09:24:51;;;;;;;;;;;;;;;21.26;44.70;100771.97;7257307;19;156332;-59
2023/01/11 09:27:19;;;;;;;;;;;;;;;21.26;44.09;100777.59;7258867;19;152985;-59
2023/01/11 09:29:47;;;;;;;;;;;;;;;21.27;44.08;100780.09;7261187;19;154159;-59
2023/01/11 09:32:15;;;;;;;;;;;;;;;21.24;44.31;100777.94;7259370;19;153668;-59
2023/01/11 09:34:46;;;;;;;;;;;;;;;21.24;44.22;100777.09;7258344;19;153978;-59
2023/01/11 09:37:21;;;;;;;;;;;;;;;21.21;44.30;100781.38;7253022;19;154414;-59
2023/01/11 09:40:00;;;;;;;;;;;;;;;21.21;44.49;100781.38;7258838;19;153486;-60
2023/01/11 09:42:36;;;;;;;;;;;;;;;21.19;44.13;100783.69;7267798;19;153575;-60
2023/01/11 09:45:20;;;;;;;;;;;;;;;21.18;44.15;100806.47;7260903;19;154465;-59
2023/01/11 09:48:03;;;;;;;;;;;;;;;21.17;44.09;100793.56;7261459;19;153818;-60
2023/01/11 09:50:40;;;;;;;;;;;;;;;21.14;44.59;100785.78;7256692;19;154276;-58
2023/01/11 09:53:12;;;;;;;;;;;;;;;21.14;44.24;100800.66;7256583;19;153669;-60
2023/01/11 09:55:45;;;;;;;;;;;;;;;21.11;44.42;100798.44;7258617;19;153618;-60
2023/01/11 09:58:31;;;;;;;;;;;;;;;21.10;44.43;100798.75;7260813;19;155530;-60
2023/01/11 10:01:10;;;;;;;;;;;;;;;21.08;44.60;100807.50;7258845;19;153174;-60
2023/01/11 10:03:57;;;;;;;;;;;;;;;21.06;44.60;100807.00;7259373;19;153771;-60
2023/01/11 10:06:28;;;;;;;;;;;;;;;21.04;44.58;100808.44;7260227;19;155340;-60
2023/01/11 10:09:10;;;;;;;;;;;;;;;21.03;45.09;100801.19;7259311;19;153791;-60
2023/01/11 10:12:09;;;;;;;;;;;;;;;21.00;45.08;100815.84;7257224;19;155826;-60
2023/01/11 10:15:04;;;;;;;;;;;;;;;20.96;44.93;100812.00;7257535;19;154082;-60
2023/01/11 10:18:03;;;;;;;;;;;;;;;20.94;45.37;100828.34;7257369;19;154129;-60
2023/01/11 10:20:52;;;;;;;;;;;;;;;20.89;45.33;100809.63;7257394;19;156224;-60
2023/01/11 10:23:28;;;;;;;;;;;;;;;20.88;45.45;100819.19;7257552;19;154769;-59
2023/01/11 10:26:15;;;;;;;;;;;;;;;20.90;45.36;100807.63;7256507;19;153999;-59
2023/01/11 10:29:06;;;;;;;;;;;;;;;20.84;45.26;100804.97;7261005;19;153471;-59
2023/01/11 10:31:58;;;;;;;;;;;;;;;20.82;45.26;100815.66;7266178;19;153860;-59
2023/01/11 10:34:41;;;;;;;;;;;;;;;20.79;45.53;100813.50;7258966;19;153731;-59
2023/01/11 10:37:45;;;;;;;;;;;;;;;20.77;45.33;100812.13;7252813;19;154667;-59
2023/01/11 10:43:16;;;;;;;;;;;;;;;20.72;44.98;100815.88;7257041;19;153493;-59
2023/01/11 10:45:48;;;;;;;;;;;;;;;20.69;44.91;100810.06;7257958;19;154117;-59
2023/01/11 10:48:23;;;;;;;;;;;;;;;20.66;45.16;100803.09;7260895;19;153594;-59
2023/01/11 10:51:00;;;;;;;;;;;;;;;20.65;45.04;100806.22;7257202;19;153561;-59
2023/01/11 10:53:33;;;;;;;;;;;;;;;20.64;45.27;100790.50;7258194;19;153782;-59
2023/01/11 10:56:14;;;;;;;;;;;;;;;20.60;45.26;100789.47;7267660;19;154568;-59
2023/01/11 10:59:02;;;;;;;;;;;;;;;20.58;45.27;100781.34;7257828;19;153839;-59
2023/01/11 11:01:44;;;;;;;;;;;;;;;20.57;45.20;100798.53;7260050;19;154979;-59
2023/01/11 11:04:30;;;;;;;;;;;;;;;20.54;45.13;100790.72;7261100;19;153166;-59
2023/01/11 11:07:31;;;;;;;;;;;;;;;20.51;45.28;100786.56;7256142;19;153948;-59
2023/01/11 11:10:28;;;;;;;;;;;;;;;20.48;45.00;100772.34;7260442;19;154270;-58
2023/01/11 11:13:26;;;;;;;;;;;;;;;20.48;45.50;100791.97;7260144;19;154265;-58
2023/01/11 11:16:27;;;;;;;;;;;;;;;20.45;45.49;100793.41;7254786;19;154394;-58
2023/01/11 11:18:57;;;;;;;;;;;;;;;20.42;45.24;100802.47;7257819;19;153842;-59
2023/01/11 11:21:24;;;;;;;;;;;;;;;20.41;45.42;100814.84;7265622;19;154214;-58
2023/01/11 11:23:54;;;;;;;;;;;;;;;20.38;45.12;100809.84;7259220;19;154292;-58
2023/01/11 11:26:26;;;;;;;;;;;;;;;20.36;44.78;100803.72;7256531;19;153951;-58
2023/01/11 11:29:02;;;;;;;;;;;;;;;20.35;45.07;100802.88;7255708;19;154356;-58
2023/01/11 11:31:31;;;;;;;;;;;;;;;20.33;44.77;100807.16;7258072;19;155074;-58
2023/01/11 11:34:05;;;;;;;;;;;;;;;20.32;44.96;100814.72;7259007;19;153348;-58
2023/01/11 11:36:42;;;;;;;;;;;;;;;20.33;44.81;100807.16;7254079;19;154285;-58
2023/01/11 11:39:19;;;;;;;;;;;;;;;20.35;45.04;100822.50;7257879;19;153048;-58
2023/01/11 11:41:50;;;;;;;;;;;;;;;20.36;45.05;100810.16;7260873;19;154246;-58
2023/01/11 11:44:20;;;;;;;;;;;;;;;20.38;45.03;100815.47;7256445;19;153906;-58
2023/01/11 11:46:57;;;;;;;;;;;;;;;20.40;44.65;100814.00;7256591;19;154355;-58
2023/01/11 11:49:24;;;;;;;;;;;;;;;20.44;44.79;100805.81;7254575;19;154158;-58
2023/01/11 11:51:52;;;;;;;;;;;;;;;20.49;44.88;100802.88;7255710;19;154640;-58
2023/01/11 11:54:28;;;;;;;;;;;;;;;20.56;44.35;100806.13;7256256;19;153535;-58
2023/01/11 11:56:57;;;;;;;;;;;;;;;20.61;44.21;100791.97;7260160;19;156295;-57
2023/01/11 11:59:27;;;;;;;;;;;;;;;20.65;44.42;100798.63;7266907;19;153879;-57
2023/01/11 12:01:58;;;;;;;;;;;;;;;20.70;43.90;100806.09;7262239;19;156132;-57
2023/01/11 12:04:35;;;;;;;;;;;;;;;20.74;44.04;100787.50;7267719;19;154307;-57
2023/01/11 12:07:03;;;;;;;;;;;;;;;20.73;42.79;100775.44;7260671;19;155073;-57
2023/01/11 12:09:30;;;;;;;;;;;;;;;20.74;42.44;100767.84;7231706;19;156646;-58
2023/01/11 12:11:58;;;;;;;;;;;;;;;20.73;42.41;100780.22;7252615;19;154408;-58
2023/01/11 12:14:27;;;;;;;;;;;;;;;20.75;42.24;100767.53;7262009;19;153518;-58
2023/01/11 12:16:56;;;;;;;;;;;;;;;20.76;42.08;100759.91;7262879;19;153638;-59
2023/01/11 12:19:24;;;;;;;;;;;;;;;20.76;41.65;100766.38;7261243;19;154021;-59
2023/01/11 12:21:52;;;;;;;;;;;;;;;20.76;41.75;100740.25;7260444;19;154084;-58
2023/01/11 12:24:19;;;;;;;;;;;;;;;20.77;41.55;100759.59;7261387;19;154342;-58
2023/01/11 12:26:56;;;;;;;;;;;;;;;20.76;41.35;100755.13;7272637;19;152200;-58
2023/01/11 12:29:29;;;;;;;;;;;;;;;20.75;41.22;100747.88;7261210;19;154263;-58
2023/01/11 12:32:03;;;;;;;;;;;;;;;20.76;40.67;100748.69;7263454;19;153651;-58
2023/01/11 12:34:40;;;;;;;;;;;;;;;20.76;41.07;100729.88;7264328;19;154100;-58
2023/01/11 12:37:19;;;;;;;;;;;;;;;20.76;40.79;100729.03;7260325;19;153422;-58
2023/01/11 12:39:56;;;;;;;;;;;;;;;20.73;40.57;100724.88;7261939;19;152393;-58
2023/01/11 12:42:23;;;;;;;;;;;;;;;20.72;40.36;100726.03;7247391;19;153300;-59
2023/01/11 12:44:53;;;;;;;;;;;;;;;20.69;40.35;100715.44;7252007;19;154102;-58
2023/01/11 12:47:30;;;;;;;;;;;;;;;20.71;40.29;100718.78;7235339;19;154925;-58
2023/01/11 12:50:06;;;;;;;;;;;;;;;20.68;40.53;100705.34;7265130;19;153932;-58
2023/01/11 12:52:41;;;;;;;;;;;;;;;20.68;40.26;100713.78;7255986;19;153147;-58
2023/01/11 12:55:09;;;;;;;;;;;;;;;20.68;40.16;100715.75;7257135;19;154482;-58
2023/01/11 12:57:52;;;;;;;;;;;;;;;20.62;39.90;100715.06;7255715;19;153927;-58
2023/01/11 13:00:20;;;;;;;;;;;;;;;20.62;39.76;100714.22;7258311;19;154562;-58
2023/01/11 13:02:57;;;;;;;;;;;;;;;20.56;40.08;100695.81;7260484;19;153839;-58
2023/01/11 13:05:28;;;;;;;;;;;;;;;20.54;39.93;100712.13;7256663;19;154263;-58
2023/01/11 13:07:55;;;;;;;;;;;;;;;20.49;39.88;100693.41;7255873;19;153346;-58
2023/01/11 13:10:32;;;;;;;;;;;;;;;20.47;40.42;100687.31;7256679;19;154501;-57
2023/01/11 13:13:04;;;;;;;;;;;;;;;20.46;40.21;100680.03;7271993;19;153461;-57